createdAt,value
2019-05-20T00:02:24.444Z,29.12
2019-05-20T00:04:45.958Z,32.13
2019-05-20T00:07:16.339Z,30.70
2019-05-20T00:09:46.846Z,33.65
2019-05-20T00:12:17.290Z,33.48
2019-05-20T00:14:47.812Z,33.70
2019-05-20T00:17:18.207Z,34.40
2019-05-20T00:19:50.723Z,34.33
2019-05-20T00:22:20.713Z,32.13
2019-05-20T00:24:51.091Z,33.63
2019-05-20T00:27:21.514Z,32.93
2019-05-20T00:29:51.916Z,31.48
2019-05-20T00:32:22.351Z,32.95
2019-05-20T00:34:54.264Z,32.00
2019-05-20T00:37:24.690Z,33.15
2019-05-20T00:39:55.080Z,32.58
2019-05-20T00:42:25.611Z,35.68
2019-05-20T00:44:56.050Z,34.63
2019-05-20T00:47:26.474Z,35.55
2019-05-20T00:49:58.313Z,35.83
2019-05-20T00:52:28.810Z,36.15
2019-05-20T00:55:00.666Z,36.90
2019-05-20T00:57:31.374Z,36.50
2019-05-20T01:00:02.005Z,36.95
2019-05-20T01:02:32.942Z,36.60
2019-05-20T01:05:03.388Z,35.60
2019-05-20T01:07:34.601Z,38.08
2019-05-20T01:10:06.374Z,38.33
2019-05-20T01:12:36.751Z,34.98
2019-05-20T01:15:09.202Z,36.45
2019-05-20T01:17:41.055Z,35.15
2019-05-20T01:20:11.773Z,38.95
2019-05-20T01:22:42.146Z,36.35
2019-05-20T01:25:13.781Z,37.00
2019-05-20T01:27:44.203Z,37.15
2019-05-20T01:30:15.267Z,34.98
2019-05-20T01:32:47.361Z,38.42
2019-05-20T01:35:17.778Z,33.85
2019-05-20T01:37:49.654Z,34.48
2019-05-20T01:40:20.130Z,32.17
2019-05-20T01:42:50.506Z,31.50
2019-05-20T01:45:20.911Z,32.88
2019-05-20T01:47:51.447Z,30.80
2019-05-20T01:50:21.878Z,29.30
2019-05-20T01:52:52.254Z,27.05
2019-05-20T01:55:23.487Z,24.70
2019-05-20T01:57:53.943Z,22.02
2019-05-20T02:00:24.341Z,21.60
2019-05-20T02:02:54.734Z,19.80
2019-05-20T02:05:26.624Z,19.90
2019-05-20T02:07:57.077Z,20.15
2019-05-20T02:10:27.581Z,18.90
2019-05-20T02:12:58.798Z,17.05
2019-05-20T02:15:30.858Z,20.35
2019-05-20T02:18:01.246Z,19.87
2019-05-20T02:20:31.730Z,24.12
2019-05-20T02:23:18.450Z,21.50
2019-05-20T02:25:49.766Z,25.12
2019-05-20T02:28:20.247Z,22.13
2019-05-20T02:30:50.655Z,25.08
2019-05-20T02:33:21.062Z,27.07
2019-05-20T02:35:52.914Z,30.20
2019-05-20T02:38:23.675Z,29.67
2019-05-20T02:40:54.132Z,27.98
2019-05-20T02:43:24.548Z,29.82
2019-05-20T02:45:54.932Z,33.88
2019-05-20T02:48:25.416Z,31.12
2019-05-20T02:50:55.797Z,32.23
2019-05-20T02:53:26.207Z,26.17
2019-05-20T02:55:57.437Z,21.33
2019-05-20T02:58:27.857Z,26.12
2019-05-20T03:00:58.252Z,28.17
2019-05-20T03:03:28.623Z,26.05
2019-05-20T03:05:59.052Z,17.92
2019-05-20T03:08:29.428Z,22.52
2019-05-20T03:10:59.913Z,26.50
2019-05-20T03:13:30.357Z,20.35
2019-05-20T03:16:00.790Z,24.60
2019-05-20T03:18:31.234Z,20.27
2019-05-20T03:21:01.640Z,23.42
2019-05-20T03:23:32.054Z,25.50
2019-05-20T03:26:02.447Z,29.20
2019-05-20T03:28:33.043Z,36.03
2019-05-20T03:31:03.580Z,22.52
2019-05-20T03:33:34.075Z,17.10
2019-05-20T03:36:05.361Z,16.97
2019-05-20T03:38:35.778Z,15.83
2019-05-20T03:41:06.164Z,13.93
2019-05-20T03:43:36.632Z,14.23
2019-05-20T03:46:07.118Z,16.00
2019-05-20T03:48:37.575Z,15.25
2019-05-20T03:51:07.988Z,18.48
2019-05-20T03:53:38.383Z,17.85
2019-05-20T03:56:10.333Z,21.07
2019-05-20T03:58:40.799Z,20.30
2019-05-20T04:01:11.280Z,22.60
2019-05-20T04:03:41.761Z,19.75
2019-05-20T04:06:12.260Z,26.30
2019-05-20T04:08:44.175Z,24.55
2019-05-20T04:11:14.595Z,22.60
2019-05-20T04:13:44.979Z,21.68
2019-05-20T04:16:15.474Z,24.72
2019-05-20T04:18:45.918Z,22.25
2019-05-20T04:21:16.342Z,21.97
2019-05-20T04:23:48.344Z,21.02
2019-05-20T04:26:18.839Z,23.90
2019-05-20T04:28:50.815Z,24.77
2019-05-20T04:31:21.758Z,25.00
2019-05-20T04:33:52.206Z,19.12
2019-05-20T04:36:22.691Z,24.65
2019-05-20T04:38:54.637Z,25.60
2019-05-20T04:41:25.226Z,27.13
2019-05-20T04:43:55.854Z,23.07
2019-05-20T04:46:26.382Z,23.38
2019-05-20T04:48:59.163Z,23.35
2019-05-20T04:51:29.578Z,19.12
2019-05-20T04:54:01.532Z,23.22
2019-05-20T04:56:31.949Z,23.80
2019-05-20T04:59:02.377Z,21.60
2019-05-20T05:01:32.791Z,20.00
2019-05-20T05:04:03.254Z,20.72
2019-05-20T05:06:35.125Z,18.23
2019-05-20T05:09:06.910Z,19.95
2019-05-20T05:11:37.343Z,24.92
2019-05-20T05:14:08.003Z,18.10
2019-05-20T05:16:39.966Z,18.50
2019-05-20T05:19:10.346Z,21.55
2019-05-20T05:21:40.760Z,20.57
2019-05-20T05:24:11.217Z,18.42
2019-05-20T05:26:41.673Z,16.95
2019-05-20T05:29:12.170Z,16.62
2019-05-20T05:31:44.049Z,15.93
2019-05-20T05:34:14.463Z,14.83
2019-05-20T05:36:44.979Z,13.13
2019-05-20T05:39:15.395Z,13.90
2019-05-20T05:41:45.858Z,14.43
2019-05-20T05:44:16.294Z,19.35
2019-05-20T05:46:48.184Z,18.15
2019-05-20T05:49:18.643Z,18.60
2019-05-20T05:51:50.528Z,20.60
2019-05-20T05:54:22.363Z,22.65
2019-05-20T05:56:52.782Z,19.80
2019-05-20T05:59:23.178Z,17.70
2019-05-20T06:01:53.639Z,15.32
2019-05-20T06:04:24.175Z,22.52
2019-05-20T06:06:54.572Z,22.07
2019-05-20T06:09:24.964Z,17.42
2019-05-20T06:11:55.381Z,20.15
2019-05-20T06:14:25.760Z,21.97
2019-05-20T06:16:56.169Z,20.62
2019-05-20T06:19:26.542Z,18.45
2019-05-20T06:21:57.075Z,18.05
2019-05-20T06:24:27.445Z,17.10
2019-05-20T06:26:57.869Z,15.35
2019-05-20T06:29:29.785Z,15.93
2019-05-20T06:32:00.263Z,16.42
2019-05-20T06:34:30.658Z,15.08
2019-05-20T06:37:05.888Z,16.40
2019-05-20T06:39:36.430Z,14.28
2019-05-20T06:42:07.687Z,13.85
2019-05-20T06:44:51.755Z,13.72
2019-05-20T06:47:10.258Z,15.85
2019-05-20T06:49:40.757Z,15.13
2019-05-20T06:52:11.207Z,13.25
2019-05-20T06:54:41.652Z,12.60
2019-05-20T06:57:12.280Z,14.18
2019-05-20T06:59:42.719Z,12.93
2019-05-20T07:02:13.119Z,11.12
2019-05-20T07:04:43.566Z,14.18
2019-05-20T07:07:21.075Z,12.43
2019-05-20T07:09:46.075Z,13.45
2019-05-20T07:12:16.481Z,12.45
2019-05-20T07:14:47.053Z,12.65
2019-05-20T07:17:17.464Z,13.88
2019-05-20T07:19:47.852Z,11.55
2019-05-20T07:22:18.299Z,10.80
2019-05-20T07:24:50.284Z,11.10
2019-05-20T07:27:20.705Z,11.88
2019-05-20T07:29:52.567Z,13.03
2019-05-20T07:32:23.014Z,12.33
2019-05-20T07:34:53.442Z,9.48
2019-05-20T07:37:23.967Z,8.25
2019-05-20T07:39:54.507Z,9.75
2019-05-20T07:42:24.935Z,10.05
2019-05-20T07:44:55.369Z,9.18
2019-05-20T07:47:25.830Z,7.90
2019-05-20T07:49:56.245Z,8.00
2019-05-20T07:52:28.093Z,6.70
2019-05-20T07:55:00.388Z,7.25
2019-05-20T07:57:31.857Z,5.40
2019-05-20T08:00:02.544Z,6.33
2019-05-20T08:02:33.275Z,6.30
2019-05-20T08:05:06.218Z,6.37
2019-05-20T08:07:51.314Z,5.65
2019-05-20T08:10:10.482Z,5.60
2019-05-20T08:12:42.452Z,5.65
2019-05-20T08:15:13.007Z,6.35
2019-05-20T08:17:43.435Z,4.95
2019-05-20T08:20:14.497Z,5.78
2019-05-20T08:22:44.987Z,5.30
2019-05-20T08:25:15.462Z,4.20
2019-05-20T08:27:45.948Z,4.62
2019-05-20T08:30:19.280Z,4.05
2019-05-20T08:32:49.869Z,4.00
2019-05-20T08:35:23.659Z,4.95
2019-05-20T08:37:52.390Z,4.42
2019-05-20T08:40:24.283Z,4.70
2019-05-20T08:42:54.755Z,4.47
2019-05-20T08:45:26.606Z,4.67
2019-05-20T08:47:57.097Z,4.83
2019-05-20T08:50:29.093Z,4.62
2019-05-20T08:52:59.529Z,5.30
2019-05-20T08:55:30.484Z,4.50
2019-05-20T08:58:01.093Z,5.37
2019-05-20T09:00:31.882Z,5.60
2019-05-20T09:03:02.328Z,6.03
2019-05-20T09:05:32.718Z,4.47
2019-05-20T09:08:04.121Z,5.05
2019-05-20T09:10:35.013Z,4.40
2019-05-20T09:13:05.790Z,5.00
2019-05-20T09:15:36.180Z,5.20
2019-05-20T09:18:06.669Z,5.28
2019-05-20T09:20:37.270Z,4.78
2019-05-20T09:23:09.195Z,3.95
2019-05-20T09:25:39.731Z,3.90
2019-05-20T09:28:10.142Z,5.33
2019-05-20T09:30:40.723Z,5.12
2019-05-20T09:33:11.207Z,6.22
2019-05-20T09:35:42.054Z,6.83
2019-05-20T09:38:20.250Z,7.97
2019-05-20T09:40:47.106Z,8.93
2019-05-20T09:43:17.759Z,8.68
2019-05-20T09:46:04.141Z,8.63
2019-05-20T09:48:20.304Z,8.65
2019-05-20T09:50:50.759Z,8.20
2019-05-20T09:53:23.936Z,7.17
2019-05-20T09:55:54.436Z,5.85
2019-05-20T09:58:25.809Z,5.47
2019-05-20T10:00:56.256Z,3.80
2019-05-20T10:03:26.648Z,4.03
2019-05-20T10:05:57.076Z,3.80
2019-05-20T10:08:37.651Z,3.55
2019-05-20T10:11:02.462Z,4.60
2019-05-20T10:13:32.894Z,4.10
2019-05-20T10:16:03.304Z,4.37
2019-05-20T10:18:38.157Z,3.75
2019-05-20T10:21:07.430Z,3.45
2019-05-20T10:23:39.535Z,4.33
2019-05-20T10:26:11.638Z,4.47
2019-05-20T10:28:46.519Z,3.80
2019-05-20T10:31:14.288Z,3.80
2019-05-20T10:33:45.504Z,4.85
2019-05-20T10:36:16.741Z,4.20
2019-05-20T10:38:57.724Z,3.52
2019-05-20T10:41:19.233Z,4.47
2019-05-20T10:43:49.642Z,4.90
2019-05-20T10:46:20.062Z,4.47
2019-05-20T10:48:50.438Z,3.83
2019-05-20T10:51:20.839Z,4.30
2019-05-20T10:53:51.202Z,4.30
2019-05-20T10:56:21.683Z,4.17
2019-05-20T10:58:52.108Z,4.30
2019-05-20T11:01:22.701Z,3.92
2019-05-20T11:03:53.295Z,3.72
2019-05-20T11:06:23.749Z,4.47
2019-05-20T11:08:54.221Z,3.30
2019-05-20T11:11:24.605Z,3.60
2019-05-20T11:13:55.136Z,3.27
2019-05-20T11:16:25.575Z,3.37
2019-05-20T11:18:58.367Z,2.95
2019-05-20T11:21:28.739Z,3.00
2019-05-20T11:24:00.706Z,2.22
2019-05-20T11:26:31.155Z,4.53
2019-05-20T11:29:03.128Z,3.33
2019-05-20T11:31:35.246Z,2.90
2019-05-20T11:34:05.960Z,2.27
2019-05-20T11:36:36.407Z,3.22
2019-05-20T11:39:07.755Z,3.05
2019-05-20T11:41:52.852Z,3.35
2019-05-20T11:44:12.033Z,2.65
2019-05-20T11:46:42.595Z,2.75
2019-05-20T11:49:13.045Z,2.83
2019-05-20T11:51:43.614Z,3.20
2019-05-20T11:54:15.497Z,2.40
2019-05-20T11:56:45.869Z,2.85
2019-05-20T11:59:16.315Z,2.60
2019-05-20T12:01:46.794Z,2.70
2019-05-20T12:04:17.199Z,2.70
2019-05-20T12:06:47.657Z,2.90
2019-05-20T12:09:19.546Z,2.80
2019-05-20T12:11:49.990Z,3.30
2019-05-20T12:14:20.503Z,2.70
2019-05-20T12:16:50.886Z,3.25
2019-05-20T12:19:21.373Z,6.58
2019-05-20T12:21:51.773Z,4.70
2019-05-20T12:24:22.201Z,3.98
2019-05-20T12:26:54.036Z,4.40
2019-05-20T12:29:24.449Z,4.53
2019-05-20T12:31:54.888Z,4.62
2019-05-20T12:34:25.303Z,5.92
2019-05-20T12:36:58.775Z,4.75
2019-05-20T12:39:29.183Z,4.70
2019-05-20T12:42:01.246Z,4.75
2019-05-20T12:44:33.271Z,5.97
2019-05-20T12:47:05.117Z,3.95
2019-05-20T12:49:35.798Z,3.17
2019-05-20T12:52:06.359Z,2.92
2019-05-20T12:54:36.817Z,2.90
2019-05-20T12:57:07.253Z,2.55
2019-05-20T12:59:37.691Z,2.10
2019-05-20T13:02:10.489Z,2.40
2019-05-20T13:04:40.967Z,2.25
2019-05-20T13:07:11.426Z,2.55
2019-05-20T13:09:41.899Z,2.17
2019-05-20T13:12:12.438Z,2.58
2019-05-20T13:14:42.857Z,2.30
2019-05-20T13:17:13.258Z,2.10
2019-05-20T13:19:43.651Z,2.42
2019-05-20T13:22:14.032Z,2.20
2019-05-20T13:24:44.406Z,2.12
2019-05-20T13:27:16.291Z,2.02
2019-05-20T13:29:46.739Z,2.75
2019-05-20T13:32:17.196Z,2.62
2019-05-20T13:34:47.614Z,2.42
2019-05-20T13:37:18.033Z,2.50
2019-05-20T13:39:48.567Z,2.70
2019-05-20T13:42:19.002Z,1.57
2019-05-20T13:44:49.447Z,2.62
2019-05-20T13:47:19.917Z,1.65
2019-05-20T13:49:50.423Z,2.10
2019-05-20T13:52:21.684Z,1.90
2019-05-20T13:54:52.996Z,1.80
2019-05-20T13:57:23.645Z,1.57
2019-05-20T13:59:55.796Z,1.90
2019-05-20T14:02:27.840Z,1.70
2019-05-20T14:04:58.223Z,1.98
2019-05-20T14:07:28.711Z,2.75
2019-05-20T14:09:59.142Z,2.10
2019-05-20T14:12:29.574Z,1.82
2019-05-20T14:15:01.458Z,1.72
2019-05-20T14:17:31.932Z,1.85
2019-05-20T14:20:02.633Z,1.65
2019-05-20T14:22:36.279Z,1.95
2019-05-20T14:25:08.235Z,1.77
2019-05-20T14:27:38.687Z,1.62
2019-05-20T14:30:10.700Z,1.82
2019-05-20T14:32:41.120Z,1.62
2019-05-20T14:35:12.110Z,1.57
2019-05-20T14:37:42.505Z,1.47
2019-05-20T14:40:13.162Z,1.92
2019-05-20T14:42:43.593Z,2.08
2019-05-20T14:45:14.032Z,1.52
2019-05-20T14:47:44.502Z,2.08
2019-05-20T14:50:15.350Z,2.20
2019-05-20T14:52:47.435Z,1.70
2019-05-20T14:55:17.893Z,1.70
2019-05-20T14:57:48.389Z,2.47
2019-05-20T15:00:18.887Z,2.10
2019-05-20T15:02:50.747Z,1.70
2019-05-20T15:05:21.183Z,2.40
2019-05-20T15:07:51.689Z,1.90
2019-05-20T15:10:22.118Z,2.30
2019-05-20T15:12:54.661Z,2.37
2019-05-20T15:15:25.486Z,2.95
2019-05-20T15:17:55.946Z,2.30
2019-05-20T15:20:26.436Z,1.80
2019-05-20T15:22:58.390Z,1.98
2019-05-20T15:25:28.814Z,1.70
2019-05-20T15:27:59.358Z,2.37
2019-05-20T15:30:29.851Z,2.20
2019-05-20T15:33:00.255Z,2.02
2019-05-20T15:35:30.655Z,1.62
2019-05-20T15:38:01.028Z,2.10
2019-05-20T15:40:31.478Z,2.70
2019-05-20T15:43:01.963Z,2.10
2019-05-20T15:45:32.453Z,2.50
2019-05-20T15:48:02.818Z,1.70
2019-05-20T15:50:33.237Z,1.72
2019-05-20T15:53:03.881Z,2.10
2019-05-20T15:55:34.460Z,2.12
2019-05-20T15:58:04.869Z,1.77
2019-05-20T16:00:35.353Z,1.82
2019-05-20T16:03:07.198Z,1.72
2019-05-20T16:05:37.657Z,1.50
2019-05-20T16:08:08.025Z,1.52
2019-05-20T16:10:41.559Z,1.90
2019-05-20T16:13:12.129Z,1.92
2019-05-20T16:15:42.639Z,2.42
2019-05-20T16:18:13.033Z,1.65
2019-05-20T16:20:43.778Z,1.40
2019-05-20T16:23:15.110Z,1.30
2019-05-20T16:25:45.712Z,1.32
2019-05-20T16:28:16.157Z,1.20
2019-05-20T16:30:46.561Z,1.30
2019-05-20T16:33:17.160Z,1.27
2019-05-20T16:35:50.417Z,1.40
2019-05-20T16:38:20.877Z,1.50
2019-05-20T16:40:51.293Z,1.20
2019-05-20T16:43:23.318Z,1.50
2019-05-20T16:45:54.000Z,1.32
2019-05-20T16:48:27.607Z,1.35
2019-05-20T16:50:59.731Z,1.40
2019-05-20T16:53:30.103Z,1.77
2019-05-20T16:56:02.016Z,1.10
2019-05-20T16:58:32.569Z,1.60
2019-05-20T17:01:03.143Z,1.30
2019-05-20T17:03:33.767Z,1.30
2019-05-20T17:06:04.267Z,1.42
2019-05-20T17:08:34.783Z,1.47
2019-05-20T17:11:06.770Z,1.40
2019-05-20T17:13:37.210Z,1.50
2019-05-20T17:16:09.146Z,1.27
2019-05-20T17:18:39.697Z,1.30
2019-05-20T17:21:10.065Z,1.10
2019-05-20T17:23:40.541Z,1.30
2019-05-20T17:26:11.006Z,1.20
2019-05-20T17:28:41.415Z,1.32
2019-05-20T17:31:13.261Z,1.10
2019-05-20T17:33:43.773Z,0.80
2019-05-20T17:36:14.161Z,0.68
2019-05-20T17:38:46.061Z,1.20
2019-05-20T17:41:16.497Z,0.88
2019-05-20T17:43:46.904Z,0.85
2019-05-20T17:46:17.604Z,0.90
2019-05-20T17:48:49.568Z,0.80
2019-05-20T17:51:20.022Z,0.90
2019-05-20T17:53:50.494Z,1.10
2019-05-20T17:56:20.927Z,1.07
2019-05-20T17:58:51.518Z,0.90
2019-05-20T18:01:23.378Z,1.37
2019-05-20T18:03:53.808Z,0.80
2019-05-20T18:06:24.210Z,1.10
2019-05-20T18:08:56.201Z,1.15
2019-05-20T18:11:26.611Z,0.80
2019-05-20T18:13:58.553Z,0.90
2019-05-20T18:16:29.062Z,0.95
2019-05-20T18:18:59.580Z,0.95
2019-05-20T18:21:30.030Z,1.15
2019-05-20T18:24:00.744Z,1.00
2019-05-20T18:26:31.192Z,0.90
2019-05-20T18:29:01.751Z,0.90
2019-05-20T18:31:33.092Z,1.00
2019-05-20T18:34:03.795Z,1.30
2019-05-20T18:36:34.233Z,0.90
2019-05-20T18:39:06.229Z,1.00
2019-05-20T18:41:36.779Z,0.95
2019-05-20T18:44:08.679Z,1.10
2019-05-20T18:46:39.053Z,1.10
2019-05-20T18:49:11.053Z,0.88
2019-05-20T18:51:41.496Z,0.80
2019-05-20T18:54:12.072Z,1.00
2019-05-20T18:56:42.627Z,1.10
2019-05-20T18:59:13.104Z,1.07
2019-05-20T19:01:55.812Z,1.10
2019-05-20T19:04:15.637Z,1.37
2019-05-20T19:06:46.042Z,1.15
2019-05-20T19:09:16.477Z,1.10
2019-05-20T19:11:47.014Z,1.20
2019-05-20T19:14:17.489Z,1.25
2019-05-20T19:16:49.428Z,1.20
2019-05-20T19:19:22.334Z,1.05
2019-05-20T19:21:55.540Z,1.30
2019-05-20T19:24:26.217Z,1.25
2019-05-20T19:26:56.622Z,1.60
2019-05-20T19:29:27.254Z,1.50
2019-05-20T19:32:01.771Z,1.60
2019-05-20T19:34:29.851Z,1.32
2019-05-20T19:37:00.575Z,1.27
2019-05-20T19:39:32.556Z,1.42
2019-05-20T19:42:03.196Z,1.40
2019-05-20T19:44:33.927Z,1.30
2019-05-20T19:47:04.468Z,2.15
2019-05-20T19:49:34.833Z,1.20
2019-05-20T19:52:05.466Z,1.70
2019-05-20T19:54:37.318Z,1.47
2019-05-20T19:57:08.602Z,1.12
2019-05-20T19:59:38.977Z,1.30
2019-05-20T20:02:17.061Z,1.40
2019-05-20T20:04:42.933Z,1.35
2019-05-20T20:07:13.470Z,1.32
2019-05-20T20:09:43.858Z,1.80
2019-05-20T20:12:15.852Z,1.30
2019-05-20T20:14:46.247Z,1.37
2019-05-20T20:17:16.686Z,1.50
2019-05-20T20:19:48.632Z,1.37
2019-05-20T20:22:19.029Z,1.22
2019-05-20T20:24:49.968Z,1.35
2019-05-20T20:27:20.510Z,1.30
2019-05-20T20:29:50.966Z,1.20
2019-05-20T20:32:36.775Z,1.80
2019-05-20T20:34:57.345Z,1.37
2019-05-20T20:37:27.735Z,1.37
2019-05-20T20:39:58.483Z,1.35
2019-05-20T20:42:28.959Z,1.35
2019-05-20T20:45:00.941Z,1.25
2019-05-20T20:47:41.243Z,1.37
2019-05-20T20:50:06.036Z,1.60
2019-05-20T20:52:36.583Z,1.57
2019-05-20T20:55:07.650Z,1.40
2019-05-20T20:57:39.522Z,1.35
2019-05-20T21:00:12.012Z,1.30
2019-05-20T21:02:52.892Z,1.42
2019-05-20T21:05:16.118Z,1.20
2019-05-20T21:07:46.538Z,1.32
2019-05-20T21:10:17.033Z,1.10
2019-05-20T21:12:47.519Z,1.60
2019-05-20T21:15:17.963Z,1.47
2019-05-20T21:17:49.929Z,1.35
2019-05-20T21:20:20.323Z,1.72
2019-05-20T21:22:50.739Z,1.50
2019-05-20T21:25:22.573Z,1.40
2019-05-20T21:27:53.056Z,1.50
2019-05-20T21:30:24.947Z,1.37
2019-05-20T21:33:08.789Z,1.47
2019-05-20T21:35:29.025Z,1.60
2019-05-20T21:37:59.523Z,1.77
2019-05-20T21:40:31.375Z,1.98
2019-05-20T21:43:01.830Z,1.70
2019-05-20T21:45:32.287Z,1.57
2019-05-20T21:48:02.678Z,1.60
2019-05-20T21:50:33.088Z,1.90
2019-05-20T21:53:03.564Z,1.60
2019-05-20T21:55:34.044Z,1.40
2019-05-20T21:58:04.592Z,1.80
2019-05-20T22:00:42.542Z,1.47
2019-05-20T22:03:24.617Z,1.45
2019-05-20T22:05:50.041Z,1.80
2019-05-20T22:08:20.508Z,1.75
2019-05-20T22:10:52.377Z,2.00
2019-05-20T22:13:22.759Z,1.90
2019-05-20T22:15:53.181Z,1.70
2019-05-20T22:18:23.561Z,2.20
2019-05-20T22:20:54.072Z,1.82
2019-05-20T22:23:26.061Z,1.95
2019-05-20T22:25:58.071Z,2.45
2019-05-20T22:28:28.524Z,2.12
2019-05-20T22:30:58.934Z,2.27
2019-05-20T22:33:40.930Z,2.30
2019-05-20T22:36:01.470Z,2.27
2019-05-20T22:38:31.839Z,2.45
2019-05-20T22:41:04.530Z,2.00
2019-05-20T22:43:36.369Z,2.40
2019-05-20T22:46:06.781Z,2.25
2019-05-20T22:48:37.172Z,2.55
2019-05-20T22:51:07.601Z,2.30
2019-05-20T22:53:38.017Z,2.00
2019-05-20T22:56:08.477Z,2.70
2019-05-20T22:58:38.868Z,2.50
2019-05-20T23:01:09.238Z,2.33
2019-05-20T23:03:55.377Z,2.67
2019-05-20T23:06:13.385Z,2.27
2019-05-20T23:08:43.874Z,2.77
2019-05-20T23:11:15.083Z,2.70
2019-05-20T23:13:45.655Z,2.80
2019-05-20T23:16:16.143Z,2.65
2019-05-20T23:18:46.719Z,3.10
2019-05-20T23:21:17.133Z,3.80
2019-05-20T23:23:47.571Z,4.90
2019-05-20T23:26:17.938Z,5.75
2019-05-20T23:28:48.342Z,6.00
2019-05-20T23:31:19.729Z,6.33
2019-05-20T23:33:50.117Z,6.83
2019-05-20T23:36:20.485Z,6.30
2019-05-20T23:38:50.926Z,7.10
2019-05-20T23:41:21.297Z,7.08
2019-05-20T23:43:51.682Z,7.30
2019-05-20T23:46:22.092Z,5.97
2019-05-20T23:48:52.520Z,6.25
2019-05-20T23:51:22.934Z,6.33
2019-05-20T23:53:53.390Z,5.12
2019-05-20T23:56:23.803Z,6.20
2019-05-20T23:58:54.177Z,6.17
